Time;durP1;ratioP1;P1;durP2;ratioP2;P2;SDS_P1;SDS_P2;PMS_P1;PMS_P2;Temp;Humidity;BMP_temperature;BMP_pressure;BME280_temperature;BME280_humidity;BME280_pressure;Samples;Min_cycle;Max_cycle;Signal;HPM_P1;HPM_P2
2022/09/14 00:00:07;;;;;;;12.32;6.07;;;14.10;99.90;;;;;;5015218;28;20053;-57
2022/09/14 00:02:35;;;;;;;12.17;6.60;;;14.20;99.90;;;;;;5014994;28;20034;-57
2022/09/14 00:05:01;;;;;;;10.75;5.65;;;14.20;99.90;;;;;;5015018;28;20492;-57
2022/09/14 00:07:27;;;;;;;10.63;6.03;;;14.20;99.90;;;;;;5015538;28;20030;-57
2022/09/14 00:09:53;;;;;;;13.23;6.07;;;14.10;99.90;;;;;;5015314;28;20033;-57
2022/09/14 00:12:19;;;;;;;13.20;6.40;;;14.10;99.90;;;;;;5014541;28;20133;-57
2022/09/14 00:14:45;;;;;;;9.80;5.50;;;14.10;99.90;;;;;;5014875;28;20125;-57
2022/09/14 00:17:11;;;;;;;16.90;6.35;;;14.00;99.90;;;;;;5014972;28;20431;-57
2022/09/14 00:19:37;;;;;;;10.23;5.95;;;14.10;99.90;;;;;;5014936;28;20072;-57
2022/09/14 00:22:05;;;;;;;11.93;6.55;;;14.10;99.90;;;;;;5029859;28;20069;-57
2022/09/14 00:24:31;;;;;;;12.85;6.93;;;14.10;99.90;;;;;;5014942;28;20033;-57
2022/09/14 00:26:57;;;;;;;16.38;6.43;;;14.10;99.90;;;;;;5014683;28;20534;-57
2022/09/14 00:29:24;;;;;;;12.10;6.00;;;14.20;99.90;;;;;;5014820;28;20484;-57
2022/09/14 00:31:50;;;;;;;12.32;6.10;;;14.20;99.90;;;;;;5015002;28;20112;-57
2022/09/14 00:34:16;;;;;;;8.30;5.88;;;14.20;99.90;;;;;;5014690;28;20558;-57
2022/09/14 00:36:46;;;;;;;10.82;7.10;;;14.10;99.90;;;;;;5014778;28;20037;-57
2022/09/14 00:39:13;;;;;;;9.75;6.20;;;14.00;99.90;;;;;;4995023;28;20026;-57
2022/09/14 00:41:42;;;;;;;17.10;6.28;;;14.00;99.90;;;;;;4995027;28;20121;-57
2022/09/14 00:44:11;;;;;;;12.02;5.93;;;14.00;99.90;;;;;;4995063;28;20550;-57
2022/09/14 00:46:39;;;;;;;10.77;5.97;;;13.90;99.90;;;;;;4995019;28;20454;-57
2022/09/14 00:49:12;;;;;;;12.48;6.25;;;13.80;99.90;;;;;;4994901;28;20445;-57
2022/09/14 00:51:46;;;;;;;10.40;6.00;;;13.80;99.90;;;;;;4994803;28;20050;-57
2022/09/14 00:54:12;;;;;;;14.50;7.10;;;13.70;99.90;;;;;;4994786;28;20030;-57
2022/09/14 00:56:39;;;;;;;12.10;6.72;;;13.60;99.90;;;;;;4995031;28;20073;-57
2022/09/14 00:59:11;;;;;;;10.85;6.05;;;13.70;99.90;;;;;;4994847;28;20066;-57
2022/09/14 01:01:37;;;;;;;14.25;6.03;;;13.60;99.90;;;;;;4994830;28;20046;-57
2022/09/14 01:04:03;;;;;;;11.90;6.00;;;13.60;99.90;;;;;;4994912;28;20031;-57
2022/09/14 01:06:46;;;;;;;14.80;6.15;;;13.70;99.90;;;;;;4994802;28;20328;-57
2022/09/14 01:09:37;;;;;;;11.63;5.93;;;13.70;99.90;;;;;;4994850;28;20523;-57
2022/09/14 01:12:35;;;;;;;;;;;13.80;99.90;;;;;;4995284;28;20030;-57
2022/09/14 01:15:10;;;;;;;12.38;5.50;;;13.70;99.90;;;;;;4971996;28;20283;-57
2022/09/14 01:17:40;;;;;;;11.32;5.40;;;13.70;99.90;;;;;;4994658;28;20081;-57
2022/09/14 01:20:28;;;;;;;16.27;6.93;;;13.70;99.90;;;;;;4998049;28;20060;-57
2022/09/14 01:23:09;;;;;;;15.98;6.10;;;13.60;99.90;;;;;;5014691;28;20033;-57
2022/09/14 01:25:54;;;;;;;15.98;5.88;;;13.60;99.90;;;;;;5016037;28;20545;-57
2022/09/14 01:28:34;;;;;;;9.30;5.88;;;13.60;99.90;;;;;;5018120;28;20034;-57
2022/09/14 01:31:05;;;;;;;18.88;6.97;;;13.60;99.90;;;;;;5017871;28;20490;-57
2022/09/14 01:33:37;;;;;;;12.70;5.55;;;13.60;99.90;;;;;;5033283;28;20053;-57
2022/09/14 01:36:06;;;;;;;12.57;6.10;;;13.70;99.90;;;;;;5017991;28;20053;-57
2022/09/14 01:38:40;;;;;;;10.20;6.25;;;13.70;99.90;;;;;;5017774;28;20033;-57
2022/09/14 01:41:10;;;;;;;11.60;5.85;;;13.60;99.90;;;;;;5017888;28;20532;-57
2022/09/14 01:43:36;;;;;;;;;;;13.50;99.90;;;;;;5018263;28;20041;-57
2022/09/14 01:46:13;;;;;;;10.90;6.35;;;13.60;99.90;;;;;;5017621;28;19916;-57
2022/09/14 01:48:54;;;;;;;13.13;6.20;;;13.50;99.90;;;;;;5017832;28;20559;-57
2022/09/14 01:51:30;;;;;;;11.88;6.10;;;13.40;99.90;;;;;;5017312;28;20472;-57
2022/09/14 01:54:37;;;;;;;16.55;5.93;;;13.40;99.90;;;;;;5017940;28;20066;-57
2022/09/14 01:57:26;;;;;;;12.73;6.03;;;13.30;99.90;;;;;;4956666;29;20030;-57
2022/09/14 01:59:57;;;;;;;10.93;5.95;;;13.30;99.90;;;;;;4945398;29;20539;-57
2022/09/14 02:02:40;;;;;;;12.20;5.90;;;13.30;99.90;;;;;;4940634;29;20057;-57
2022/09/14 02:05:35;;;;;;;13.02;5.70;;;13.40;99.90;;;;;;4956532;29;20053;-57
2022/09/14 02:08:02;;;;;;;14.23;6.15;;;13.40;99.90;;;;;;4956731;29;20050;-57
2022/09/14 02:10:28;;;;;;;16.63;6.47;;;13.30;99.90;;;;;;4956520;29;20043;-57
2022/09/14 02:12:55;;;;;;;14.75;8.10;;;13.40;99.90;;;;;;4956558;29;20023;-57
2022/09/14 02:15:22;;;;;;;16.30;7.32;;;13.40;99.90;;;;;;4956408;29;20040;-57
2022/09/14 02:17:48;;;;;;;12.48;7.15;;;13.30;99.90;;;;;;4956464;29;20046;-57
2022/09/14 02:20:30;;;;;;;12.25;7.50;;;13.30;99.90;;;;;;4956080;29;20492;-57
2022/09/14 02:22:56;;;;;;;11.63;6.82;;;13.40;99.90;;;;;;4956445;29;20035;-57
2022/09/14 02:25:22;;;;;;;12.38;7.28;;;13.40;99.90;;;;;;4956359;28;20050;-57
2022/09/14 02:27:47;;;;;;;12.00;6.93;;;13.40;99.90;;;;;;4956065;29;20577;-57
2022/09/14 02:30:15;;;;;;;16.05;7.00;;;13.40;99.90;;;;;;4968981;28;20041;-57
2022/09/14 02:32:45;;;;;;;15.73;6.03;;;13.40;99.90;;;;;;5016966;28;20026;-57
2022/09/14 02:35:22;;;;;;;13.27;6.93;;;13.40;99.90;;;;;;5016822;28;20029;-57
2022/09/14 02:38:07;;;;;;;15.43;6.43;;;13.30;99.90;;;;;;5016671;28;20483;-57
2022/09/14 02:40:52;;;;;;;12.25;6.93;;;13.40;99.90;;;;;;5016631;28;20034;-57
2022/09/14 02:43:38;;;;;;;10.45;6.13;;;13.40;99.90;;;;;;5016686;28;20498;-57
2022/09/14 02:46:21;;;;;;;11.75;6.30;;;13.30;99.90;;;;;;5016652;28;20057;-57
2022/09/14 02:49:20;;;;;;;10.60;6.35;;;13.30;99.90;;;;;;5016416;28;20033;-57
2022/09/14 02:51:56;;;;;;;15.70;6.47;;;13.20;99.90;;;;;;5016380;28;20042;-57
2022/09/14 02:54:29;;;;;;;9.88;6.50;;;13.20;99.90;;;;;;5016511;28;20034;-57
2022/09/14 02:57:00;;;;;;;12.27;6.90;;;13.20;99.90;;;;;;5016311;28;20057;-57
2022/09/14 02:59:25;;;;;;;12.90;6.28;;;13.20;99.90;;;;;;5016552;28;20049;-57
2022/09/14 03:01:51;;;;;;;10.32;6.40;;;13.20;99.90;;;;;;5016292;28;20113;-57
2022/09/14 03:04:17;;;;;;;13.48;6.78;;;13.10;99.90;;;;;;5016206;28;20036;-57
2022/09/14 03:06:43;;;;;;;12.50;6.72;;;13.20;99.90;;;;;;5016363;28;20477;-57
2022/09/14 03:09:09;;;;;;;16.63;6.75;;;13.20;99.90;;;;;;5031476;28;20036;-57
2022/09/14 03:11:35;;;;;;;12.32;6.78;;;13.10;99.90;;;;;;5016000;28;20084;-56
2022/09/14 03:14:01;;;;;;;9.18;6.45;;;13.10;99.90;;;;;;5016069;28;20099;-56
2022/09/14 03:16:27;;;;;;;10.65;5.95;;;13.00;99.90;;;;;;5015912;28;20026;-57
2022/09/14 03:18:53;;;;;;;8.45;5.55;;;13.00;99.90;;;;;;5016111;28;20388;-56
2022/09/14 03:21:19;;;;;;;11.75;5.85;;;12.90;99.90;;;;;;5015862;28;20030;-56
2022/09/14 03:23:47;;;;;;;10.10;5.95;;;12.90;99.90;;;;;;5015963;28;20513;-57
2022/09/14 03:26:17;;;;;;;10.43;5.80;;;12.90;99.90;;;;;;5015843;28;20030;-57
2022/09/14 03:28:43;;;;;;;12.55;6.90;;;12.90;99.90;;;;;;5015846;28;20059;-56
2022/09/14 03:31:11;;;;;;;9.68;5.82;;;13.00;99.90;;;;;;5015901;28;20038;-57
2022/09/14 03:33:37;;;;;;;9.15;6.05;;;13.00;99.90;;;;;;5015786;28;20490;-57
2022/09/14 03:36:19;;;;;;;11.45;5.85;;;12.90;99.90;;;;;;5015708;28;20022;-57
2022/09/14 03:38:48;;;;;;;12.02;5.97;;;12.90;99.90;;;;;;5015757;28;20026;-57
2022/09/14 03:41:15;;;;;;;14.57;7.05;;;12.90;99.90;;;;;;5015677;28;20034;-57
2022/09/14 03:43:42;;;;;;;13.77;7.85;;;12.90;99.90;;;;;;5015594;28;20030;-56
2022/09/14 03:46:16;;;;;;;17.90;9.48;;;12.90;99.90;;;;;;5015456;28;20453;-57
2022/09/14 03:48:43;;;;;;;13.95;8.40;;;12.90;99.90;;;;;;5014927;28;20026;-56
2022/09/14 03:51:11;;;;;;;19.15;8.52;;;12.90;99.90;;;;;;5015168;28;20511;-57
2022/09/14 03:53:38;;;;;;;16.17;9.00;;;12.90;99.90;;;;;;5015293;28;20054;-56
2022/09/14 03:56:13;;;;;;;16.30;8.48;;;12.80;99.90;;;;;;5015479;28;20361;-57
2022/09/14 03:58:39;;;;;;;14.20;7.20;;;12.80;99.90;;;;;;5015437;28;20018;-56
2022/09/14 04:01:07;;;;;;;12.95;7.22;;;12.80;99.90;;;;;;5015248;28;20056;-57
2022/09/14 04:03:33;;;;;;;15.57;6.75;;;12.70;99.90;;;;;;5015207;28;20475;-57
2022/09/14 04:05:59;;;;;;;10.73;6.53;;;12.70;99.90;;;;;;5015160;28;20077;-56
2022/09/14 04:08:25;;;;;;;14.30;6.78;;;12.70;99.90;;;;;;5015270;28;20025;-56
2022/09/14 04:10:51;;;;;;;10.45;6.40;;;12.80;99.90;;;;;;5015218;28;20046;-56
2022/09/14 04:13:17;;;;;;;16.65;6.90;;;12.70;99.90;;;;;;5014968;28;20105;-57
2022/09/14 04:15:43;;;;;;;15.13;6.75;;;12.80;99.90;;;;;;5014992;28;20061;-57
2022/09/14 04:18:09;;;;;;;14.82;7.70;;;12.80;99.90;;;;;;5015001;28;20041;-56
2022/09/14 04:20:35;;;;;;;18.83;7.60;;;12.90;99.90;;;;;;5014722;28;20022;-57
2022/09/14 04:23:01;;;;;;;15.50;7.60;;;12.90;99.90;;;;;;5014861;28;20534;-56
2022/09/14 04:25:27;;;;;;;15.52;8.05;;;12.90;99.90;;;;;;5015102;28;20026;-56
2022/09/14 04:27:54;;;;;;;14.45;6.95;;;12.90;99.90;;;;;;5014731;28;20407;-56
2022/09/14 04:30:20;;;;;;;12.63;6.47;;;12.90;99.90;;;;;;5014828;28;20357;-56
2022/09/14 04:32:46;;;;;;;11.05;6.65;;;12.80;99.90;;;;;;5014750;28;20044;-56
2022/09/14 04:35:12;;;;;;;11.52;6.22;;;12.90;99.90;;;;;;5014569;28;20021;-56
2022/09/14 04:37:37;;;;;;;8.50;5.93;;;12.80;99.90;;;;;;5014769;28;20345;-56
2022/09/14 04:40:04;;;;;;;16.08;6.68;;;12.80;99.90;;;;;;5014743;28;20030;-57
2022/09/14 04:42:30;;;;;;;13.63;6.85;;;12.80;99.90;;;;;;5014588;28;20022;-56
2022/09/14 04:44:56;;;;;;;14.23;6.93;;;12.80;99.90;;;;;;5014623;28;20022;-56
2022/09/14 04:47:22;;;;;;;13.90;7.18;;;12.90;99.90;;;;;;5014476;28;20045;-57
2022/09/14 04:49:47;;;;;;;12.80;6.88;;;13.00;99.90;;;;;;5014398;28;20472;-56
2022/09/14 04:52:14;;;;;;;12.70;7.10;;;13.00;99.90;;;;;;5014486;28;20046;-56
2022/09/14 04:54:39;;;;;;;13.05;7.80;;;13.00;99.90;;;;;;5014495;28;20022;-56
2022/09/14 04:57:05;;;;;;;27.50;9.43;;;13.10;99.90;;;;;;5014279;28;20088;-57
2022/09/14 04:59:31;;;;;;;15.73;6.90;;;13.20;99.90;;;;;;5016253;28;20267;-56
2022/09/14 05:01:57;;;;;;;17.80;6.63;;;13.30;99.90;;;;;;5018487;28;20030;-56
2022/09/14 05:04:23;;;;;;;24.45;9.15;;;13.30;99.90;;;;;;5018416;28;20033;-56
2022/09/14 05:06:49;;;;;;;24.70;8.45;;;13.30;99.90;;;;;;5018407;28;20448;-56
2022/09/14 05:09:17;;;;;;;18.50;7.90;;;13.30;99.90;;;;;;5018403;28;20137;-57
2022/09/14 05:11:43;;;;;;;25.17;7.80;;;13.40;99.90;;;;;;5018897;28;20034;-57
2022/09/14 05:14:13;;;;;;;21.27;8.52;;;13.50;99.90;;;;;;5018981;28;20456;-56
2022/09/14 05:16:41;;;;;;;12.93;6.60;;;13.70;99.90;;;;;;5014793;28;20026;-57
2022/09/14 05:19:10;;;;;;;29.52;8.77;;;13.70;99.90;;;;;;5015619;28;20434;-57
2022/09/14 05:21:36;;;;;;;17.92;7.55;;;13.80;99.90;;;;;;5013769;28;20030;-57
2022/09/14 05:24:13;;;;;;;22.30;7.50;;;13.80;99.90;;;;;;5011998;28;20048;-57
2022/09/14 05:26:42;;;;;;;34.15;8.77;;;13.90;99.90;;;;;;5013784;28;20026;-57
2022/09/14 05:29:12;;;;;;;21.05;8.25;;;14.10;99.90;;;;;;5017803;28;20052;-57
2022/09/14 05:31:37;;;;;;;22.50;8.45;;;14.10;99.90;;;;;;5012747;28;20038;-57
2022/09/14 05:34:03;;;;;;;27.35;8.18;;;14.30;99.90;;;;;;4998852;28;20079;-57
2022/09/14 05:36:29;;;;;;;41.38;23.02;;;14.50;99.90;;;;;;5012388;28;20030;-56
2022/09/14 05:38:56;;;;;;;23.27;8.77;;;14.60;99.90;;;;;;5017119;28;20064;-57
2022/09/14 05:41:22;;;;;;;22.00;8.18;;;14.80;99.90;;;;;;5017757;28;20431;-57
2022/09/14 05:43:48;;;;;;;27.65;8.77;;;14.90;99.90;;;;;;5017623;28;20113;-57
2022/09/14 05:46:18;;;;;;;25.40;9.80;;;15.00;99.90;;;;;;5016214;28;20054;-57
2022/09/14 05:48:45;;;;;;;30.87;9.40;;;15.10;99.90;;;;;;5001344;28;20026;-57
2022/09/14 05:51:13;;;;;;;31.15;9.35;;;15.10;99.90;;;;;;5015878;28;20556;-57
2022/09/14 05:53:39;;;;;;;30.83;10.00;;;15.40;99.90;;;;;;5017242;28;20037;-57
2022/09/14 05:56:09;;;;;;;25.90;8.82;;;15.40;99.90;;;;;;5017447;28;20111;-57
2022/09/14 05:58:36;;;;;;;22.42;7.07;;;15.60;99.90;;;;;;5017490;28;20100;-57
2022/09/14 06:01:10;;;;;;;23.60;8.07;;;15.70;99.90;;;;;;5016972;28;20040;-57
2022/09/14 06:03:37;;;;;;;20.92;7.93;;;15.70;99.90;;;;;;5017388;28;20057;-57
2022/09/14 06:06:05;;;;;;;26.08;8.45;;;16.00;99.90;;;;;;5015730;28;20547;-57
2022/09/14 06:08:31;;;;;;;29.25;8.98;;;16.30;99.90;;;;;;5017100;28;20033;-57
2022/09/14 06:11:05;;;;;;;34.13;8.95;;;16.50;99.90;;;;;;5016513;28;20038;-57
2022/09/14 06:13:32;;;;;;;30.85;8.27;;;16.70;99.90;;;;;;5016961;28;20030;-57
2022/09/14 06:16:06;;;;;;;19.42;8.45;;;17.00;99.90;;;;;;5016994;28;20121;-57
2022/09/14 06:18:33;;;;;;;29.65;9.55;;;17.40;99.90;;;;;;5013895;28;20038;-57
2022/09/14 06:21:00;;;;;;;22.05;9.13;;;17.70;99.90;;;;;;5005811;28;20031;-57
2022/09/14 06:23:27;;;;;;;27.50;8.88;;;18.00;99.90;;;;;;4997276;28;20488;-57
2022/09/14 06:25:55;;;;;;;24.85;9.18;;;18.10;99.90;;;;;;4997214;28;20023;-57
2022/09/14 06:28:21;;;;;;;20.90;8.80;;;18.40;99.90;;;;;;4997007;28;20080;-57
2022/09/14 06:30:48;;;;;;;29.00;9.38;;;18.70;99.90;;;;;;4997047;28;20031;-57
2022/09/14 06:33:17;;;;;;;39.03;9.55;;;19.20;99.90;;;;;;5015902;28;20026;-57
2022/09/14 06:35:56;;;;;;;23.92;8.32;;;19.10;99.90;;;;;;5016390;28;20030;-57
2022/09/14 06:38:23;;;;;;;20.35;9.10;;;19.40;99.90;;;;;;5016407;28;20029;-57
2022/09/14 06:40:57;;;;;;;19.08;7.45;;;19.30;99.90;;;;;;5016552;28;20057;-57
2022/09/14 06:43:27;;;;;;;21.67;8.32;;;19.50;99.90;;;;;;5016379;28;20465;-57
2022/09/14 06:46:12;;;;;;;;;;;19.50;99.90;;;;;;5017107;28;20057;-57
2022/09/14 06:48:43;;;;;;;44.97;10.40;;;19.40;99.90;;;;;;5016113;28;20437;-57
2022/09/14 06:51:34;;;;;;;28.42;10.10;;;19.90;99.90;;;;;;5016346;28;20514;-57
2022/09/14 06:54:01;;;;;;;21.35;8.63;;;20.30;98.10;;;;;;5016260;28;20049;-57
2022/09/14 06:56:35;;;;;;;24.13;8.65;;;20.20;96.80;;;;;;5016046;28;20048;-57
2022/09/14 06:59:03;;;;;;;33.65;9.52;;;20.40;96.50;;;;;;5016105;28;20133;-57
2022/09/14 07:01:28;;;;;;;26.65;10.85;;;20.90;97.10;;;;;;5016137;28;20088;-57
2022/09/14 07:03:55;;;;;;;37.38;12.23;;;20.50;94.60;;;;;;5014706;28;20033;-57
2022/09/14 07:06:27;;;;;;;35.30;14.18;;;20.60;97.60;;;;;;5015768;28;20396;-57
2022/09/14 07:08:54;;;;;;;38.03;14.05;;;21.20;95.30;;;;;;5016110;28;20115;-57
2022/09/14 07:11:25;;;;;;;35.00;14.75;;;21.60;91.60;;;;;;5015530;28;20034;-57
2022/09/14 07:13:53;;;;;;;27.98;12.32;;;21.20;92.60;;;;;;5016023;28;20038;-57
2022/09/14 07:16:20;;;;;;;24.77;10.30;;;21.80;92.70;;;;;;5015804;28;20034;-57
2022/09/14 07:18:46;;;;;;;25.42;9.52;;;22.50;90.80;;;;;;5004220;28;20123;-57
2022/09/14 07:21:14;;;;;;;57.97;12.07;;;22.80;86.80;;;;;;5008047;28;20040;-57
2022/09/14 07:23:45;;;;;;;13.27;6.05;;;23.10;81.50;;;;;;5014553;28;20090;-57
2022/09/14 07:26:19;;;;;;;19.38;6.78;;;22.90;78.40;;;;;;5015516;28;20121;-57
2022/09/14 07:28:48;;;;;;;20.38;6.82;;;23.80;83.90;;;;;;5015902;28;20337;-58
2022/09/14 07:31:17;;;;;;;28.25;8.10;;;24.20;76.60;;;;;;5015310;28;20034;-58
2022/09/14 07:33:44;;;;;;;25.95;8.07;;;24.60;71.60;;;;;;5015215;28;20417;-58
2022/09/14 07:36:12;;;;;;;20.52;7.05;;;24.80;69.80;;;;;;5015686;28;20025;-58
2022/09/14 07:38:38;;;;;;;18.10;5.95;;;25.00;69.40;;;;;;5015317;28;20050;-58
2022/09/14 07:41:04;;;;;;;16.65;6.00;;;25.10;67.20;;;;;;5015314;28;20026;-57
2022/09/14 07:43:30;;;;;;;29.77;7.68;;;25.80;66.80;;;;;;5015174;28;20120;-58
2022/09/14 07:45:56;;;;;;;21.75;5.13;;;26.00;65.70;;;;;;5015200;28;20137;-58
2022/09/14 07:48:22;;;;;;;13.73;6.05;;;25.80;63.10;;;;;;5002715;28;20034;-58
2022/09/14 07:51:02;;;;;;;19.98;6.97;;;25.70;63.60;;;;;;4995475;28;20127;-58
2022/09/14 07:53:28;;;;;;;27.65;6.68;;;26.40;61.90;;;;;;4996125;28;20049;-58
2022/09/14 07:56:00;;;;;;;12.77;5.72;;;26.70;61.00;;;;;;4995984;28;20023;-58
2022/09/14 07:58:27;;;;;;;24.88;6.53;;;27.30;58.70;;;;;;4995105;28;20134;-58
2022/09/14 08:01:01;;;;;;;13.25;5.30;;;27.70;62.10;;;;;;4996034;28;20543;-58
2022/09/14 08:03:30;;;;;;;14.00;4.88;;;27.80;56.10;;;;;;4996191;28;20065;-58
2022/09/14 08:06:09;;;;;;;10.18;4.65;;;27.90;55.70;;;;;;4996377;28;20030;-58
2022/09/14 08:08:38;;;;;;;18.15;5.93;;;28.50;57.60;;;;;;4996160;28;20045;-58
2022/09/14 08:11:20;;;;;;;11.18;4.22;;;29.00;53.30;;;;;;4996120;28;20026;-58
2022/09/14 08:13:50;;;;;;;22.05;5.47;;;28.40;53.60;;;;;;5012521;28;20088;-58
2022/09/14 08:16:18;;;;;;;14.68;4.57;;;28.00;52.40;;;;;;5014677;28;20044;-58
2022/09/14 08:18:44;;;;;;;15.52;5.10;;;27.80;52.30;;;;;;5015300;28;20054;-58
2022/09/14 08:21:15;;;;;;;13.15;5.43;;;28.20;51.90;;;;;;5014709;28;20101;-58
2022/09/14 08:23:42;;;;;;;15.80;5.38;;;28.70;54.10;;;;;;5015186;28;20061;-58
2022/09/14 08:26:12;;;;;;;16.98;4.65;;;29.00;51.80;;;;;;5014833;28;20049;-58
2022/09/14 08:28:38;;;;;;;11.70;4.90;;;29.00;49.60;;;;;;5014757;28;20071;-58
2022/09/14 08:31:10;;;;;;;8.75;5.03;;;29.40;51.70;;;;;;5014489;28;20038;-58
2022/09/14 08:33:39;;;;;;;11.00;4.53;;;29.90;50.60;;;;;;5014617;28;20100;-58
2022/09/14 08:36:10;;;;;;;8.20;4.55;;;30.00;50.30;;;;;;5014312;28;20030;-58
2022/09/14 08:38:37;;;;;;;7.55;4.60;;;30.00;50.20;;;;;;5014350;28;20144;-58
2022/09/14 08:41:11;;;;;;;10.93;4.90;;;30.00;50.90;;;;;;5014188;28;20041;-58
2022/09/14 08:43:38;;;;;;;10.55;4.53;;;30.40;49.30;;;;;;5014376;28;20042;-58
2022/09/14 08:46:11;;;;;;;9.90;4.30;;;30.50;48.80;;;;;;5014557;28;20053;-58
2022/09/14 08:48:44;;;;;;;23.00;6.18;;;29.90;49.80;;;;;;5014397;28;20045;-58
2022/09/14 08:51:10;;;;;;;14.30;4.57;;;29.90;52.70;;;;;;5014041;28;20049;-59
2022/09/14 08:53:40;;;;;;;16.63;5.32;;;30.50;50.30;;;;;;5014354;28;20480;-58
2022/09/14 08:56:16;;;;;;;15.98;7.65;;;30.60;51.80;;;;;;5013888;28;20088;-58
2022/09/14 08:59:03;;;;;;;11.90;4.97;;;31.20;50.00;;;;;;5014220;28;20042;-58
2022/09/14 09:01:45;;;;;;;13.38;5.05;;;31.60;48.70;;;;;;5012561;28;20487;-58
2022/09/14 09:04:30;;;;;;;5.95;4.05;;;31.80;47.90;;;;;;4994762;28;20034;-58
2022/09/14 09:07:57;;;;;;;9.48;3.92;;;32.10;47.10;;;;;;4994661;28;20069;-59
2022/09/14 09:10:25;;;;;;;14.50;4.72;;;32.10;45.10;;;;;;4991949;28;20484;-59
2022/09/14 09:12:57;;;;;;;16.33;5.03;;;32.00;47.10;;;;;;4992283;28;20030;-59
2022/09/14 09:15:30;;;;;;;14.63;4.30;;;32.40;46.70;;;;;;4992114;28;20033;-59
2022/09/14 09:18:15;;;;;;;11.25;4.30;;;32.40;44.70;;;;;;4992119;28;20109;-59
2022/09/14 09:21:00;;;;;;;10.98;4.80;;;32.70;45.40;;;;;;4992110;28;20034;-59
2022/09/14 09:23:28;;;;;;;16.15;6.05;;;32.80;45.50;;;;;;4984904;28;20466;-59
2022/09/14 09:26:00;;;;;;;9.52;4.75;;;33.10;45.20;;;;;;4972435;28;20109;-59
2022/09/14 09:28:27;;;;;;;7.93;4.15;;;33.30;42.60;;;;;;4972583;28;20035;-59
2022/09/14 09:30:56;;;;;;;12.45;4.45;;;33.40;43.30;;;;;;4972984;28;20208;-59
2022/09/14 09:33:33;;;;;;;13.10;4.40;;;33.40;42.90;;;;;;4972751;28;20058;-59
2022/09/14 09:36:13;;;;;;;16.90;5.60;;;33.70;43.60;;;;;;4973195;28;20030;-59
2022/09/14 09:38:39;;;;;;;21.38;6.68;;;33.80;42.80;;;;;;4972978;28;20456;-59
2022/09/14 09:41:16;;;;;;;9.43;4.40;;;33.60;41.20;;;;;;4986665;28;20046;-59
2022/09/14 09:44:02;;;;;;;12.68;5.10;;;33.60;41.70;;;;;;5010030;28;20129;-59
2022/09/14 09:46:33;;;;;;;10.40;4.95;;;33.80;41.20;;;;;;4996193;28;20033;-59
2022/09/14 09:49:21;;;;;;;10.68;3.40;;;34.00;39.30;;;;;;4998492;28;20034;-59
2022/09/14 09:51:49;;;;;;;6.80;3.50;;;33.90;38.20;;;;;;4998357;28;20077;-59
2022/09/14 09:54:15;;;;;;;5.07;3.35;;;33.40;39.00;;;;;;4998035;28;20019;-59
2022/09/14 09:56:51;;;;;;;6.85;3.45;;;34.00;39.70;;;;;;4997821;28;20018;-59
2022/09/14 09:59:37;;;;;;;10.38;3.03;;;34.10;39.60;;;;;;4997991;28;20034;-59
2022/09/14 10:02:28;;;;;;;7.53;3.63;;;33.90;40.10;;;;;;4997076;28;20034;-59
2022/09/14 10:05:01;;;;;;;23.88;5.15;;;34.40;40.20;;;;;;4997826;28;20089;-59
2022/09/14 10:07:28;;;;;;;17.98;5.20;;;34.00;37.90;;;;;;4997373;28;20038;-59
2022/09/14 10:10:14;;;;;;;13.15;4.15;;;34.00;38.60;;;;;;4997529;28;20030;-59
2022/09/14 10:12:52;;;;;;;11.30;2.80;;;34.30;38.60;;;;;;4997482;28;20048;-59
2022/09/14 10:15:31;;;;;;;7.78;2.10;;;34.40;35.70;;;;;;4997769;28;20101;-59
2022/09/14 10:18:12;;;;;;;12.55;3.08;;;33.90;34.60;;;;;;4997190;28;20042;-59
2022/09/14 10:20:52;;;;;;;18.58;4.72;;;33.70;40.00;;;;;;5012418;28;20022;-59
2022/09/14 10:23:17;;;;;;;11.88;3.47;;;33.50;39.10;;;;;;5031845;28;20030;-59
2022/09/14 10:25:47;;;;;;;6.63;2.42;;;33.70;39.70;;;;;;5016774;28;20522;-59
2022/09/14 10:28:28;;;;;;;9.40;2.97;;;34.00;36.00;;;;;;5016890;28;20032;-59
2022/09/14 10:31:18;;;;;;;8.32;2.15;;;34.20;35.40;;;;;;5016943;28;20025;-59
2022/09/14 10:33:50;;;;;;;4.47;2.13;;;34.50;35.50;;;;;;5016670;28;20022;-59
2022/09/14 10:36:24;;;;;;;10.38;3.10;;;34.70;30.90;;;;;;5016554;28;20029;-59
2022/09/14 10:38:58;;;;;;;5.90;2.20;;;34.60;34.10;;;;;;5016278;28;20492;-59
2022/09/14 10:41:33;;;;;;;5.78;2.40;;;34.40;35.80;;;;;;5016310;28;20452;-59
2022/09/14 10:44:04;;;;;;;11.13;2.88;;;34.00;34.30;;;;;;5016258;28;20033;-59
2022/09/14 10:46:51;;;;;;;6.72;2.28;;;33.30;35.40;;;;;;5016193;28;20033;-59
2022/09/14 10:49:22;;;;;;;16.35;5.30;;;32.80;37.90;;;;;;5016265;28;20049;-59
2022/09/14 10:52:23;;;;;;;7.55;3.28;;;33.20;37.30;;;;;;5016764;28;20053;-59
2022/09/14 10:54:59;;;;;;;3.22;2.13;;;33.40;35.50;;;;;;5016755;28;20093;-59
2022/09/14 10:57:46;;;;;;;5.95;2.20;;;33.20;38.60;;;;;;5016813;28;20045;-59
2022/09/14 11:00:19;;;;;;;10.27;1.73;;;33.00;38.90;;;;;;5016693;28;20612;-59
2022/09/14 11:03:02;;;;;;;8.45;2.70;;;33.20;39.70;;;;;;5016648;28;20116;-59
2022/09/14 11:05:48;;;;;;;12.18;2.83;;;33.50;37.00;;;;;;5016741;28;20037;-59
2022/09/14 11:08:23;;;;;;;5.97;1.58;;;34.10;39.90;;;;;;5016738;28;20045;-59
2022/09/14 11:11:08;;;;;;;7.03;1.67;;;34.60;35.60;;;;;;5016543;28;20042;-59
2022/09/14 11:13:40;;;;;;;9.57;2.70;;;35.20;38.70;;;;;;5016657;28;20030;-59
2022/09/14 11:16:22;;;;;;;14.75;3.70;;;35.30;34.20;;;;;;5016544;28;20033;-59
2022/09/14 11:19:09;;;;;;;7.85;3.22;;;35.90;33.60;;;;;;5016091;28;20372;-59
2022/09/14 11:21:44;;;;;;;10.32;2.45;;;36.20;34.50;;;;;;5015664;28;20062;-59
2022/09/14 11:24:42;;;;;;;15.05;4.45;;;36.00;35.20;;;;;;5015908;28;20361;-59
2022/09/14 11:27:26;;;;;;;9.20;2.65;;;36.00;34.70;;;;;;5014967;28;20074;-59
2022/09/14 11:30:01;;;;;;;6.30;2.47;;;35.40;34.00;;;;;;5015709;28;20117;-59
2022/09/14 11:32:56;;;;;;;14.80;3.60;;;35.50;38.20;;;;;;5014321;28;20034;-60
2022/09/14 11:35:43;;;;;;;3.55;1.92;;;35.40;35.20;;;;;;5015118;28;20037;-60
2022/09/14 11:38:24;;;;;;;15.82;3.50;;;34.50;33.40;;;;;;5015559;28;20026;-59
2022/09/14 11:41:24;;;;;;;9.30;2.72;;;34.20;34.30;;;;;;5015528;28;20088;-60
2022/09/14 11:44:02;;;;;;;8.95;2.75;;;33.70;34.70;;;;;;5014818;28;20517;-59
2022/09/14 11:46:33;;;;;;;11.07;3.28;;;33.20;39.60;;;;;;5015099;28;20400;-59
2022/09/14 11:49:23;;;;;;;11.07;2.97;;;33.10;37.70;;;;;;5015273;28;20495;-59
2022/09/14 11:52:10;;;;;;;10.90;3.92;;;33.00;39.90;;;;;;5012903;28;20080;-59
2022/09/14 11:54:39;;;;;;;17.80;4.00;;;33.60;39.90;;;;;;5015010;28;20052;-60
2022/09/14 11:57:06;;;;;;;14.55;3.33;;;33.80;41.60;;;;;;5015144;28;20021;-59
2022/09/14 11:59:42;;;;;;;17.20;4.55;;;34.30;41.00;;;;;;5014676;28;20061;-60
2022/09/14 12:02:26;;;;;;;17.58;4.22;;;34.60;37.00;;;;;;5014634;28;20065;-60
2022/09/14 12:05:05;;;;;;;11.80;3.22;;;35.20;39.50;;;;;;5015114;28;20037;-58
2022/09/14 12:07:45;;;;;;;11.57;3.63;;;34.80;36.50;;;;;;5014838;28;20030;-58
2022/09/14 12:10:17;;;;;;;9.52;3.10;;;34.80;37.20;;;;;;5014222;28;20056;-58
2022/09/14 12:13:03;;;;;;;10.85;3.92;;;34.70;35.70;;;;;;5015189;28;20026;-58
2022/09/14 12:15:28;;;;;;;8.93;2.78;;;34.20;35.60;;;;;;5014714;28;20036;-58
2022/09/14 12:18:06;;;;;;;8.23;2.28;;;34.20;38.70;;;;;;5014979;28;20038;-57
2022/09/14 12:20:42;;;;;;;14.35;4.85;;;34.00;35.90;;;;;;5008062;28;20117;-57
2022/09/14 12:23:31;;;;;;;13.63;4.13;;;33.70;38.80;;;;;;4995259;28;20057;-58
2022/09/14 12:26:04;;;;;;;28.35;5.18;;;33.70;38.60;;;;;;4993642;28;20445;-57
2022/09/14 12:28:36;;;;;;;11.85;2.58;;;33.40;37.70;;;;;;4995007;28;20030;-57
2022/09/14 12:31:02;;;;;;;12.63;2.67;;;33.70;38.40;;;;;;4994904;28;20034;-57
2022/09/14 12:33:31;;;;;;;12.15;2.60;;;34.00;38.40;;;;;;4994897;28;20092;-58
2022/09/14 12:36:04;;;;;;;6.20;2.72;;;34.20;36.80;;;;;;4995005;28;20061;-57
2022/09/14 12:38:30;;;;;;;9.13;3.10;;;34.20;36.20;;;;;;5008896;28;20026;-57
2022/09/14 12:41:00;;;;;;;16.15;3.55;;;33.50;38.80;;;;;;5014412;28;20065;-58
2022/09/14 12:43:35;;;;;;;8.57;3.00;;;33.80;38.10;;;;;;5014604;28;20112;-57
2022/09/14 12:46:19;;;;;;;12.50;3.58;;;33.80;38.60;;;;;;5014344;28;20057;-57
2022/09/14 12:48:49;;;;;;;15.93;3.28;;;33.70;36.80;;;;;;5013651;28;20353;-57
2022/09/14 12:51:30;;;;;;;10.40;3.20;;;33.90;39.10;;;;;;5014227;28;20050;-58
2022/09/14 12:54:02;;;;;;;15.75;3.50;;;34.00;37.50;;;;;;5014409;28;20026;-57
2022/09/14 12:57:13;;;;;;;24.85;15.75;;;34.00;37.70;;;;;;5014499;28;20104;-57
2022/09/14 12:59:51;;;;;;;18.15;4.28;;;33.80;37.30;;;;;;5011052;28;20220;-57
2022/09/14 13:02:35;;;;;;;9.10;2.53;;;33.50;37.30;;;;;;5014055;28;20108;-58
2022/09/14 13:05:02;;;;;;;8.40;2.55;;;33.90;36.10;;;;;;5014526;28;20112;-57